createdAt,value
2017-01-15T00:00:41.711Z,1009.32
2017-01-15T00:01:28.735Z,1009.35
2017-01-15T00:02:12.729Z,1009.35
2017-01-15T00:03:00.718Z,1009.4
2017-01-15T00:03:43.724Z,1009.39
2017-01-15T00:06:07.335Z,1009.35
2017-01-15T00:06:49.496Z,1009.38
2017-01-15T00:07:33.332Z,1009.34
2017-01-15T00:08:17.460Z,1009.36
2017-01-15T00:08:59.429Z,1009.36
2017-01-15T00:09:42.523Z,1009.39
2017-01-15T00:10:24.313Z,1009.37
2017-01-15T00:11:07.433Z,1009.39
2017-01-15T00:11:51.574Z,1009.4
2017-01-15T00:12:32.694Z,1009.39
2017-01-15T00:13:15.136Z,1009.42
2017-01-15T00:15:43.920Z,1009.39
2017-01-15T00:16:35.619Z,1009.4
2017-01-15T00:17:19.628Z,1009.38
2017-01-15T00:18:11.046Z,1009.42
2017-01-15T00:18:52.029Z,1009.43
2017-01-15T00:19:34.915Z,1009.44
2017-01-15T00:20:20.247Z,1009.43
2017-01-15T00:21:03.131Z,1009.47
2017-01-15T00:21:47.229Z,1009.44
2017-01-15T00:22:30.248Z,1009.42
2017-01-15T00:23:11.617Z,1009.48
2017-01-15T00:23:53.085Z,1009.49
2017-01-15T00:24:37.130Z,1009.47
2017-01-15T00:25:20.111Z,1009.47
2017-01-15T00:26:03.226Z,1009.49
2017-01-15T00:26:48.232Z,1009.55
2017-01-15T00:27:29.506Z,1009.53
2017-01-15T00:28:12.731Z,1009.51
2017-01-15T00:28:55.774Z,1009.49
2017-01-15T00:29:40.663Z,1009.49
2017-01-15T00:30:24.870Z,1009.54
2017-01-15T00:31:05.381Z,1009.51
2017-01-15T00:31:46.507Z,1009.51
2017-01-15T00:32:27.015Z,1009.5
2017-01-15T00:33:11.113Z,1009.52
2017-01-15T00:35:26.777Z,1009.57
2017-01-15T00:36:07.476Z,1009.59
2017-01-15T00:36:55.275Z,1009.6
2017-01-15T00:37:39.393Z,1009.61
2017-01-15T00:38:21.505Z,1009.54
2017-01-15T00:39:02.923Z,1009.66
2017-01-15T00:39:48.075Z,1009.62
2017-01-15T00:40:29.414Z,1009.66
2017-01-15T00:41:11.300Z,1009.68
2017-01-15T00:41:57.426Z,1009.73
2017-01-15T00:42:37.912Z,1009.76
2017-01-15T00:43:19.108Z,1009.71
2017-01-15T00:44:00.180Z,1009.75
2017-01-15T00:44:42.180Z,1009.8
2017-01-15T00:45:24.386Z,1009.75
2017-01-15T00:46:07.296Z,1009.77
2017-01-15T00:46:48.611Z,1009.74
2017-01-15T00:47:29.754Z,1009.78
2017-01-15T00:48:12.766Z,1009.77
2017-01-15T00:48:54.907Z,1009.78
2017-01-15T00:49:37.887Z,1009.75
2017-01-15T00:52:01.474Z,1009.76
2017-01-15T00:52:42.791Z,1009.79
2017-01-15T00:55:05.826Z,1009.83
2017-01-15T00:55:46.928Z,1009.88
2017-01-15T00:56:29.716Z,1009.86
2017-01-15T00:57:15.646Z,1009.87
2017-01-15T00:58:00.723Z,1009.91
2017-01-15T00:58:41.925Z,1009.89
2017-01-15T00:59:28.846Z,1009.96
2017-01-15T01:00:10.735Z,1009.93
2017-01-15T01:00:51.939Z,1010.01
2017-01-15T01:01:34.634Z,1009.98
2017-01-15T01:02:16.737Z,1010.01
2017-01-15T01:02:59.751Z,1009.98
2017-01-15T01:03:40.720Z,1009.99
2017-01-15T01:04:26.771Z,1010.02
2017-01-15T01:05:09.743Z,1009.98
2017-01-15T01:06:07.631Z,1010.05
2017-01-15T01:06:48.651Z,1010.03
2017-01-15T01:07:30.628Z,1010.04
2017-01-15T01:08:13.745Z,1010.07
2017-01-15T01:12:09.583Z,1010.11
2017-01-15T01:12:50.640Z,1010.1
2017-01-15T01:13:34.666Z,1010.13
2017-01-15T01:14:21.555Z,1010.16
2017-01-15T01:15:02.006Z,1010.09
2017-01-15T01:15:45.150Z,1010.13
2017-01-15T01:16:28.320Z,1010.13
2017-01-15T01:17:10.750Z,1010.17
2017-01-15T01:17:52.918Z,1010.16
2017-01-15T01:18:37.673Z,1010.16
2017-01-15T01:19:20.526Z,1010.15
2017-01-15T01:20:04.596Z,1010.18
2017-01-15T01:21:02.644Z,1010.19
2017-01-15T01:21:49.645Z,1010.2
2017-01-15T01:22:32.678Z,1010.18
2017-01-15T01:23:27.638Z,1010.21
2017-01-15T01:24:13.661Z,1010.21
2017-01-15T01:26:30.880Z,1010.2
2017-01-15T01:27:12.728Z,1010.27
2017-01-15T01:27:54.730Z,1010.27
2017-01-15T01:28:44.602Z,1010.25
2017-01-15T01:29:26.924Z,1010.27
2017-01-15T01:30:10.738Z,1010.29
2017-01-15T01:30:53.613Z,1010.34
2017-01-15T01:31:45.001Z,1010.32
2017-01-15T01:32:31.998Z,1010.31
2017-01-15T01:33:14.031Z,1010.34
2017-01-15T01:34:00.614Z,1010.32
2017-01-15T01:34:51.913Z,1010.34
2017-01-15T01:37:13.457Z,1010.33
2017-01-15T01:37:54.631Z,1010.35
2017-01-15T01:38:36.823Z,1010.39
2017-01-15T01:39:17.329Z,1010.39
2017-01-15T01:39:59.473Z,1010.38
2017-01-15T01:40:41.680Z,1010.39
2017-01-15T01:41:24.006Z,1010.43
2017-01-15T01:42:07.679Z,1010.43
2017-01-15T01:42:50.923Z,1010.45
2017-01-15T01:43:32.064Z,1010.43
2017-01-15T01:44:15.803Z,1010.48
2017-01-15T01:46:31.519Z,1010.48
2017-01-15T01:47:20.672Z,1010.47
2017-01-15T01:49:41.767Z,1010.55
2017-01-15T01:50:24.749Z,1010.53
2017-01-15T01:51:07.575Z,1010.55
2017-01-15T01:51:50.674Z,1010.53
2017-01-15T01:52:34.609Z,1010.57
2017-01-15T01:53:17.543Z,1010.5
2017-01-15T01:54:03.536Z,1010.59
2017-01-15T01:54:45.524Z,1010.61
2017-01-15T01:55:27.690Z,1010.61
2017-01-15T01:56:08.919Z,1010.55
2017-01-15T01:57:01.170Z,1010.58
2017-01-15T01:57:44.135Z,1010.65
2017-01-15T01:58:40.263Z,1010.62
2017-01-15T02:00:36.000Z,1010.55
2017-01-15T02:01:19.953Z,1010.59
2017-01-15T02:02:04.831Z,1010.6
2017-01-15T02:02:46.815Z,1010.58
2017-01-15T02:03:30.836Z,1010.62
2017-01-15T02:04:11.825Z,1010.62
2017-01-15T02:04:57.810Z,1010.66
2017-01-15T02:05:45.168Z,1010.65
2017-01-15T02:06:28.472Z,1010.62
2017-01-15T02:07:09.831Z,1010.65
2017-01-15T02:07:52.954Z,1010.66
2017-01-15T02:08:34.839Z,1010.66
2017-01-15T02:09:17.824Z,1010.64
2017-01-15T02:09:59.132Z,1010.66
2017-01-15T02:10:40.167Z,1010.65
2017-01-15T02:11:23.818Z,1010.68
2017-01-15T02:12:04.826Z,1010.64
2017-01-15T02:12:46.125Z,1010.66
2017-01-15T02:13:29.283Z,1010.69
2017-01-15T02:14:13.300Z,1010.64
2017-01-15T02:14:58.320Z,1010.67
2017-01-15T02:15:42.455Z,1010.67
2017-01-15T02:16:25.339Z,1010.68
2017-01-15T02:17:06.707Z,1010.65
2017-01-15T02:17:49.443Z,1010.7
2017-01-15T02:18:32.344Z,1010.65
2017-01-15T02:19:15.330Z,1010.69
2017-01-15T02:20:01.314Z,1010.65
2017-01-15T02:20:46.311Z,1010.69
2017-01-15T02:21:26.828Z,1010.73
2017-01-15T02:22:09.971Z,1010.69
2017-01-15T02:22:52.300Z,1010.69
2017-01-15T02:23:35.553Z,1010.7
2017-01-15T02:24:16.019Z,1010.7
2017-01-15T02:24:59.931Z,1010.75
2017-01-15T02:25:41.117Z,1010.76
2017-01-15T02:26:22.567Z,1010.7
2017-01-15T02:27:03.731Z,1010.74
2017-01-15T02:27:44.950Z,1010.75
2017-01-15T02:28:25.438Z,1010.74
2017-01-15T02:29:07.337Z,1010.76
2017-01-15T02:29:51.536Z,1010.75
2017-01-15T02:30:32.772Z,1010.75
2017-01-15T02:31:13.936Z,1010.81
2017-01-15T02:31:55.207Z,1010.82
2017-01-15T02:32:39.824Z,1010.86
2017-01-15T02:33:21.138Z,1010.81
2017-01-15T02:34:07.058Z,1010.8
2017-01-15T02:34:49.142Z,1010.84
2017-01-15T02:35:32.197Z,1010.83
2017-01-15T02:36:15.318Z,1010.85
2017-01-15T02:36:57.319Z,1010.88
2017-01-15T02:37:39.713Z,1010.9
2017-01-15T02:38:20.204Z,1010.86
2017-01-15T02:39:03.826Z,1010.81
2017-01-15T02:39:46.309Z,1010.84
2017-01-15T02:40:27.318Z,1010.9
2017-01-15T02:41:09.528Z,1010.84
2017-01-15T02:41:54.309Z,1010.92
2017-01-15T02:42:34.824Z,1010.94
2017-01-15T02:43:17.033Z,1010.89
2017-01-15T02:44:04.251Z,1010.94
2017-01-15T02:44:47.457Z,1010.95
2017-01-15T02:45:34.473Z,1010.98
2017-01-15T02:46:18.339Z,1010.94
2017-01-15T02:47:03.543Z,1010.97
2017-01-15T02:47:46.309Z,1010.98
2017-01-15T02:48:26.781Z,1010.99
2017-01-15T02:49:16.038Z,1010.94
2017-01-15T02:49:59.822Z,1011.01
2017-01-15T02:50:43.808Z,1011.03
2017-01-15T02:51:25.032Z,1011.05
2017-01-15T02:52:06.315Z,1011
2017-01-15T02:52:51.831Z,1011.07
2017-01-15T02:53:33.488Z,1011.04
2017-01-15T02:54:14.966Z,1011.04
2017-01-15T02:55:04.954Z,1011.09
2017-01-15T02:55:47.818Z,1011.08
2017-01-15T02:56:37.836Z,1011.1
2017-01-15T02:57:18.961Z,1011.08
2017-01-15T02:58:00.827Z,1011.08
2017-01-15T02:58:43.228Z,1011.08
2017-01-15T02:59:24.321Z,1011.1
2017-01-15T03:00:15.347Z,1011.1
2017-01-15T03:01:00.546Z,1011.13
2017-01-15T03:01:45.477Z,1011.09
2017-01-15T03:02:39.813Z,1011.16
2017-01-15T03:03:21.142Z,1011.14
2017-01-15T03:04:12.069Z,1011.1
2017-01-15T03:04:55.024Z,1011.14
2017-01-15T03:05:41.142Z,1011.15
2017-01-15T03:06:26.818Z,1011.14
2017-01-15T03:07:23.953Z,1011.14
2017-01-15T03:08:07.046Z,1011.23
2017-01-15T03:08:48.449Z,1011.19
2017-01-15T03:09:33.532Z,1011.12
2017-01-15T03:10:18.444Z,1011.14
2017-01-15T03:11:12.327Z,1011.16
2017-01-15T03:11:55.547Z,1011.15
2017-01-15T03:12:37.933Z,1011.18
2017-01-15T03:13:19.046Z,1011.23
2017-01-15T03:14:02.820Z,1011.24
2017-01-15T03:14:45.940Z,1011.2
2017-01-15T03:15:41.971Z,1011.28
2017-01-15T03:16:27.326Z,1011.24
2017-01-15T03:17:09.546Z,1011.24
2017-01-15T03:17:59.454Z,1011.25
2017-01-15T03:18:44.458Z,1011.32
2017-01-15T03:19:29.526Z,1011.25
2017-01-15T03:20:20.641Z,1011.28
2017-01-15T03:21:05.311Z,1011.28
2017-01-15T03:21:47.325Z,1011.27
2017-01-15T03:22:33.519Z,1011.26
2017-01-15T03:23:16.548Z,1011.26
2017-01-15T03:25:39.030Z,1011.32
2017-01-15T03:26:24.203Z,1011.32
2017-01-15T03:27:13.013Z,1011.36
2017-01-15T03:28:03.997Z,1011.34
2017-01-15T03:28:47.271Z,1011.4
2017-01-15T03:29:33.499Z,1011.4
2017-01-15T03:30:17.683Z,1011.36
2017-01-15T03:30:58.135Z,1011.4
2017-01-15T03:31:41.996Z,1011.38
2017-01-15T03:32:23.317Z,1011.41
2017-01-15T03:33:14.012Z,1011.46
2017-01-15T03:33:55.023Z,1011.37
2017-01-15T03:34:37.255Z,1011.44
2017-01-15T03:35:21.000Z,1011.45
2017-01-15T03:37:23.968Z,1011.44
2017-01-15T03:38:06.202Z,1011.46
2017-01-15T03:39:05.086Z,1011.48
2017-01-15T03:39:50.204Z,1011.49
2017-01-15T03:40:36.379Z,1011.51
2017-01-15T03:41:19.087Z,1011.56
2017-01-15T03:42:00.296Z,1011.57
2017-01-15T03:42:42.076Z,1011.54
2017-01-15T03:43:23.180Z,1011.59
2017-01-15T03:44:11.217Z,1011.5
2017-01-15T03:44:56.089Z,1011.58
2017-01-15T03:45:44.314Z,1011.53
2017-01-15T03:46:26.212Z,1011.54
2017-01-15T03:47:06.667Z,1011.56
2017-01-15T03:47:47.808Z,1011.63
2017-01-15T03:48:28.254Z,1011.65
2017-01-15T03:49:09.482Z,1011.62
2017-01-15T03:49:50.876Z,1011.64
2017-01-15T03:50:36.692Z,1011.61
2017-01-15T03:51:20.786Z,1011.63
2017-01-15T03:53:19.185Z,1011.63
2017-01-15T03:54:00.197Z,1011.58
2017-01-15T03:54:42.413Z,1011.65
2017-01-15T03:55:25.539Z,1011.62
2017-01-15T03:56:07.540Z,1011.64
2017-01-15T03:56:50.418Z,1011.66
2017-01-15T03:57:36.389Z,1011.7
2017-01-15T03:58:19.418Z,1011.69
2017-01-15T03:59:02.399Z,1011.71
2017-01-15T03:59:48.387Z,1011.73
2017-01-15T04:00:31.405Z,1011.7
2017-01-15T04:01:15.569Z,1011.7
2017-01-15T04:01:57.707Z,1011.68
2017-01-15T04:02:42.408Z,1011.74
2017-01-15T04:03:24.611Z,1011.75
2017-01-15T04:04:05.126Z,1011.7
2017-01-15T04:04:47.279Z,1011.77
2017-01-15T04:05:31.422Z,1011.73
2017-01-15T04:06:16.407Z,1011.77
2017-01-15T04:07:05.425Z,1011.8
2017-01-15T04:07:50.415Z,1011.81
2017-01-15T04:08:35.540Z,1011.89
2017-01-15T04:09:32.380Z,1011.81
2017-01-15T04:10:13.545Z,1011.8
2017-01-15T04:10:54.705Z,1011.82
2017-01-15T04:15:06.514Z,1011.87
2017-01-15T04:15:54.284Z,1011.92
2017-01-15T04:16:36.617Z,1011.89
2017-01-15T04:17:20.272Z,1011.95
2017-01-15T04:18:01.505Z,1011.92
2017-01-15T04:18:48.771Z,1011.94
2017-01-15T04:19:29.259Z,1011.94
2017-01-15T04:20:12.273Z,1011.91
2017-01-15T04:20:53.542Z,1011.97
2017-01-15T04:21:35.277Z,1011.97
2017-01-15T04:22:17.729Z,1012
2017-01-15T04:23:04.936Z,1012
2017-01-15T04:23:46.810Z,1011.98
2017-01-15T04:24:32.931Z,1012.02
2017-01-15T04:25:16.930Z,1012.01
2017-01-15T04:25:58.905Z,1012
2017-01-15T04:26:40.793Z,1012.01
2017-01-15T04:27:23.787Z,1012.04
2017-01-15T04:28:05.930Z,1012.06
2017-01-15T04:28:51.895Z,1012.04
2017-01-15T04:29:35.079Z,1012
2017-01-15T04:30:17.269Z,1012.02
2017-01-15T04:31:00.306Z,1012.01
2017-01-15T04:31:41.519Z,1012.03
2017-01-15T04:32:22.913Z,1012.06
2017-01-15T04:33:05.914Z,1012.09
2017-01-15T04:33:49.082Z,1012.05
2017-01-15T04:34:29.560Z,1012.03
2017-01-15T04:35:13.807Z,1012.13
2017-01-15T04:36:02.792Z,1012.09
2017-01-15T04:36:48.766Z,1012.14
2017-01-15T04:37:29.356Z,1012.17
2017-01-15T04:38:10.676Z,1012.13
2017-01-15T04:39:00.951Z,1012.17
2017-01-15T04:39:43.008Z,1012.17
2017-01-15T04:40:27.782Z,1012.11
2017-01-15T04:41:09.004Z,1012.18
2017-01-15T04:41:51.909Z,1012.18
2017-01-15T04:42:35.153Z,1012.2
2017-01-15T04:43:20.777Z,1012.26
2017-01-15T04:44:09.789Z,1012.29
2017-01-15T04:44:56.806Z,1012.3
2017-01-15T04:45:39.823Z,1012.27
2017-01-15T04:46:21.219Z,1012.29
2017-01-15T04:47:08.304Z,1012.27
2017-01-15T04:47:50.510Z,1012.26
2017-01-15T04:48:31.902Z,1012.31
2017-01-15T04:49:12.424Z,1012.26
2017-01-15T04:49:53.516Z,1012.34
2017-01-15T04:50:36.292Z,1012.31
2017-01-15T04:51:16.791Z,1012.39
2017-01-15T04:52:00.197Z,1012.32
2017-01-15T04:52:42.278Z,1012.33
2017-01-15T04:53:26.283Z,1012.33
2017-01-15T04:54:08.399Z,1012.36
2017-01-15T04:54:51.294Z,1012.38
2017-01-15T04:55:33.680Z,1012.36
2017-01-15T04:56:15.022Z,1012.38
2017-01-15T04:56:57.290Z,1012.36
2017-01-15T04:57:52.274Z,1012.36
2017-01-15T04:58:32.919Z,1012.36
2017-01-15T04:59:15.775Z,1012.34
2017-01-15T04:59:57.910Z,1012.37
2017-01-15T05:00:39.276Z,1012.36
2017-01-15T05:01:21.299Z,1012.38
2017-01-15T05:02:18.291Z,1012.43
2017-01-15T05:03:01.315Z,1012.44
2017-01-15T05:03:43.645Z,1012.41
2017-01-15T05:04:27.435Z,1012.42
2017-01-15T05:05:11.432Z,1012.46
2017-01-15T05:06:03.280Z,1012.47
2017-01-15T05:06:44.674Z,1012.49
2017-01-15T05:07:26.003Z,1012.47
2017-01-15T05:08:09.113Z,1012.53
2017-01-15T05:08:49.583Z,1012.57
2017-01-15T05:14:12.860Z,1012.5
2017-01-15T05:14:54.570Z,1012.55
2017-01-15T05:15:36.586Z,1012.59
2017-01-15T05:16:23.815Z,1012.57
2017-01-15T05:17:08.570Z,1012.63
2017-01-15T06:11:12.463Z,1013.4
2017-01-15T06:11:53.578Z,1013.38
2017-01-15T06:12:36.659Z,1013.4
2017-01-15T06:13:18.474Z,1013.38
2017-01-15T06:13:59.568Z,1013.43
2017-01-15T06:14:41.852Z,1013.44
2017-01-15T06:15:24.425Z,1013.39
2017-01-15T06:16:05.561Z,1013.41
2017-01-15T06:16:50.435Z,1013.4
2017-01-15T06:17:35.433Z,1013.43
2017-01-15T06:18:20.831Z,1013.42
2017-01-15T06:19:03.921Z,1013.5
2017-01-15T06:19:48.939Z,1013.51
2017-01-15T06:28:41.121Z,1013.63
2017-01-15T06:29:25.336Z,1013.66
2017-01-15T06:30:06.730Z,1013.67
2017-01-15T06:30:47.241Z,1013.66
2017-01-15T06:31:28.740Z,1013.68
2017-01-15T06:32:09.999Z,1013.7
2017-01-15T06:32:51.321Z,1013.71
2017-01-15T06:33:33.242Z,1013.74
2017-01-15T06:40:29.632Z,1013.93
2017-01-15T06:41:11.631Z,1013.94
2017-01-15T06:41:53.624Z,1013.93
2017-01-15T06:42:50.615Z,1014.02
2017-01-15T06:43:32.945Z,1013.99
2017-01-15T06:44:14.103Z,1014.01
2017-01-15T06:44:58.103Z,1014.04
2017-01-15T06:47:27.618Z,1014.05
2017-01-15T06:48:19.622Z,1014.08
2017-01-15T06:49:00.736Z,1014.1
2017-01-15T06:49:45.626Z,1014.1
2017-01-15T06:50:27.048Z,1014.05
2017-01-15T06:51:09.100Z,1014.03
2017-01-15T06:51:54.115Z,1014.08
2017-01-15T06:52:45.114Z,1014.06
2017-01-15T06:53:44.131Z,1014.09
2017-01-15T06:54:28.304Z,1014.12
2017-01-15T06:55:10.256Z,1014.11
2017-01-15T06:55:53.652Z,1014.07
2017-01-15T06:56:35.730Z,1014.16
2017-01-15T06:57:19.649Z,1014.19
2017-01-15T06:58:00.137Z,1014.11
2017-01-15T06:58:44.109Z,1014.16
2017-01-15T06:59:35.099Z,1014.18
2017-01-15T07:00:24.112Z,1014.15
2017-01-15T07:01:06.444Z,1014.18
2017-01-15T07:01:50.604Z,1014.18
2017-01-15T07:02:40.615Z,1014.16
2017-01-15T07:03:36.831Z,1014.18
2017-01-15T07:04:21.627Z,1014.18
2017-01-15T07:08:48.056Z,1014.23
2017-01-15T07:09:29.206Z,1014.26
2017-01-15T07:10:13.358Z,1014.26
2017-01-15T07:10:53.796Z,1014.25
2017-01-15T07:11:35.043Z,1014.26
2017-01-15T07:12:16.832Z,1014.29
2017-01-15T07:12:58.411Z,1014.28
2017-01-15T07:13:40.649Z,1014.28
2017-01-15T07:14:23.963Z,1014.31
2017-01-15T07:15:08.847Z,1014.31
2017-01-15T07:15:52.838Z,1014.35
2017-01-15T07:16:35.847Z,1014.34
2017-01-15T07:17:29.834Z,1014.41
2017-01-15T07:18:14.853Z,1014.37
2017-01-15T07:19:06.045Z,1014.43
2017-01-15T07:19:50.837Z,1014.41
2017-01-15T07:20:33.255Z,1014.44
2017-01-15T07:21:16.860Z,1014.43
2017-01-15T07:22:08.837Z,1014.47
2017-01-15T07:22:49.844Z,1014.44
2017-01-15T07:23:33.827Z,1014.46
2017-01-15T07:24:15.114Z,1014.45
2017-01-15T07:24:57.860Z,1014.45
2017-01-15T07:25:38.959Z,1014.5
2017-01-15T07:26:23.822Z,1014.53
2017-01-15T07:27:06.872Z,1014.51
2017-01-15T07:27:49.988Z,1014.55
2017-01-15T07:28:34.847Z,1014.51
2017-01-15T07:29:15.329Z,1014.56
2017-01-15T07:29:58.635Z,1014.54
2017-01-15T07:30:43.487Z,1014.59
2017-01-15T07:31:50.338Z,1014.6
2017-01-15T07:32:39.337Z,1014.55
2017-01-15T07:33:22.336Z,1014.64
2017-01-15T07:34:03.554Z,1014.64
2017-01-15T07:34:52.330Z,1014.64
2017-01-15T07:37:27.972Z,1014.69
2017-01-15T07:38:10.262Z,1014.68
2017-01-15T07:38:50.717Z,1014.74
2017-01-15T07:39:31.756Z,1014.7
2017-01-15T07:40:13.951Z,1014.72
2017-01-15T07:42:31.500Z,1014.76
2017-01-15T07:43:13.061Z,1014.79
2017-01-15T07:43:55.348Z,1014.8
2017-01-15T07:44:36.737Z,1014.82
2017-01-15T07:45:19.924Z,1014.78
2017-01-15T07:46:01.816Z,1014.83
2017-01-15T07:47:01.713Z,1014.75
2017-01-15T07:47:49.947Z,1014.81
2017-01-15T07:48:32.037Z,1014.86
2017-01-15T07:49:15.224Z,1014.89
2017-01-15T07:49:58.442Z,1014.89
2017-01-15T07:50:40.704Z,1014.88
2017-01-15T07:51:22.025Z,1014.94
2017-01-15T07:52:03.465Z,1014.91
2017-01-15T07:52:45.237Z,1014.92
2017-01-15T07:53:25.701Z,1014.91
2017-01-15T07:54:07.719Z,1014.93
2017-01-15T07:54:51.112Z,1014.95
2017-01-15T07:55:33.726Z,1014.95
2017-01-15T07:56:17.824Z,1014.95
2017-01-15T07:57:00.941Z,1014.98
2017-01-15T07:57:43.718Z,1014.97
2017-01-15T07:58:26.039Z,1014.98
2017-01-15T07:59:10.710Z,1015
2017-01-15T07:59:59.698Z,1014.99
2017-01-15T08:01:02.821Z,1015
2017-01-15T08:01:44.717Z,1014.97
2017-01-15T08:02:27.226Z,1014.99
2017-01-15T08:03:11.463Z,1015.04
2017-01-15T08:03:57.715Z,1015.03
2017-01-15T08:04:48.730Z,1015
2017-01-15T08:05:34.820Z,1015.03
2017-01-15T08:06:15.333Z,1015
2017-01-15T08:07:00.197Z,1015.04
2017-01-15T08:07:46.211Z,1015.09
2017-01-15T08:08:29.323Z,1015.04
2017-01-15T08:09:24.203Z,1015.13
2017-01-15T08:10:05.576Z,1015.17
2017-01-15T08:10:49.369Z,1015.11
2017-01-15T08:13:13.370Z,1015.22
2017-01-15T08:14:06.505Z,1015.21
2017-01-15T08:14:47.662Z,1015.24
2017-01-15T08:15:29.741Z,1015.28
2017-01-15T08:16:11.094Z,1015.28
2017-01-15T08:16:53.613Z,1015.31
2017-01-15T08:17:35.124Z,1015.35
2017-01-15T08:18:17.492Z,1015.29
2017-01-15T08:19:01.380Z,1015.32
2017-01-15T08:19:45.666Z,1015.38
2017-01-15T08:20:26.170Z,1015.39
2017-01-15T08:21:06.634Z,1015.38
2017-01-15T08:21:48.579Z,1015.38
2017-01-15T08:22:32.347Z,1015.42
2017-01-15T08:23:15.358Z,1015.41
2017-01-15T08:24:05.341Z,1015.42
2017-01-15T08:24:50.371Z,1015.49
2017-01-15T08:25:31.771Z,1015.5
2017-01-15T08:26:16.004Z,1015.54
2017-01-15T08:27:00.053Z,1015.57
2017-01-15T08:27:53.891Z,1015.64
2017-01-15T08:28:36.242Z,1015.59
2017-01-15T08:29:21.355Z,1015.59
2017-01-15T08:30:25.359Z,1015.66
2017-01-15T08:31:07.486Z,1015.64
2017-01-15T08:31:49.646Z,1015.59
2017-01-15T08:32:32.482Z,1015.63
2017-01-15T08:33:18.362Z,1015.62
2017-01-15T08:35:31.530Z,1015.66
2017-01-15T08:36:12.019Z,1015.66
2017-01-15T08:38:30.834Z,1015.69
2017-01-15T08:39:11.291Z,1015.71
2017-01-15T08:39:57.683Z,1015.73
2017-01-15T08:40:42.963Z,1015.77
2017-01-15T08:41:24.127Z,1015.73
2017-01-15T08:42:12.322Z,1015.79
2017-01-15T08:42:59.559Z,1015.75
2017-01-15T08:43:56.211Z,1015.79
2017-01-15T08:44:39.175Z,1015.8
2017-01-15T08:45:31.206Z,1015.81
2017-01-15T08:46:28.546Z,1015.82
2017-01-15T08:47:14.826Z,1015.83
2017-01-15T08:47:59.329Z,1015.78
2017-01-15T08:48:43.208Z,1015.81
2017-01-15T08:49:27.307Z,1015.82
2017-01-15T08:50:10.214Z,1015.86
2017-01-15T08:52:27.076Z,1015.86
2017-01-15T08:53:11.079Z,1015.85
2017-01-15T08:53:51.547Z,1015.83
2017-01-15T08:54:33.853Z,1015.86
2017-01-15T08:55:14.886Z,1015.81
2017-01-15T08:55:55.353Z,1015.91
2017-01-15T08:56:40.085Z,1015.87
2017-01-15T08:57:22.194Z,1015.91
2017-01-15T08:58:14.075Z,1015.89
2017-01-15T08:58:55.349Z,1015.92
2017-01-15T09:00:56.142Z,1015.93
2017-01-15T09:01:39.016Z,1015.93
2017-01-15T09:02:24.259Z,1015.92
2017-01-15T09:03:06.156Z,1015.95
2017-01-15T09:03:50.241Z,1015.93
2017-01-15T09:04:38.052Z,1015.96
2017-01-15T09:05:19.538Z,1015.95
2017-01-15T09:06:03.521Z,1015.98
2017-01-15T09:06:46.530Z,1015.98
2017-01-15T09:07:30.523Z,1015.98
2017-01-15T09:08:21.935Z,1015.95
2017-01-15T09:09:02.418Z,1015.99
2017-01-15T09:09:47.142Z,1016
2017-01-15T09:10:28.524Z,1015.99
2017-01-15T09:11:09.736Z,1016
2017-01-15T09:11:51.052Z,1016.05
2017-01-15T09:12:31.521Z,1015.98
2017-01-15T09:13:12.647Z,1016.02
2017-01-15T09:13:55.163Z,1016.02
2017-01-15T09:14:38.240Z,1016.04
2017-01-15T09:15:20.161Z,1016.05
2017-01-15T09:16:00.627Z,1016.04
2017-01-15T09:16:43.837Z,1016.07
2017-01-15T09:17:28.043Z,1016.05
2017-01-15T09:18:09.254Z,1016.06
2017-01-15T09:20:43.130Z,1016.08
2017-01-15T09:21:24.536Z,1016.11
2017-01-15T09:22:05.562Z,1016.13
2017-01-15T09:22:45.987Z,1016.1
2017-01-15T09:23:29.809Z,1016.14
2017-01-15T09:24:12.022Z,1016.13
2017-01-15T09:24:53.106Z,1016.14
2017-01-15T09:25:34.115Z,1016.17
2017-01-15T09:26:17.043Z,1016.13
2017-01-15T09:26:59.443Z,1016.09
2017-01-15T09:29:14.884Z,1016.2
2017-01-15T09:31:28.907Z,1016.2
2017-01-15T09:32:09.857Z,1016.26
2017-01-15T09:42:36.205Z,1016.38
2017-01-15T09:43:17.572Z,1016.36
2017-01-15T09:43:59.226Z,1016.39
2017-01-15T09:44:49.339Z,1016.44
2017-01-15T09:45:31.488Z,1016.38
2017-01-15T09:46:12.640Z,1016.48
2017-01-15T09:46:56.028Z,1016.42
2017-01-15T09:47:37.112Z,1016.45
2017-01-15T09:48:18.344Z,1016.46
2017-01-15T09:53:45.415Z,1016.59
2017-01-15T09:54:25.889Z,1016.56
2017-01-15T09:56:53.099Z,1016.59
2017-01-15T09:57:40.294Z,1016.58
2017-01-15T09:58:28.225Z,1016.59
2017-01-15T09:59:11.085Z,1016.59
2017-01-15T09:59:58.389Z,1016.59
2017-01-15T10:00:47.311Z,1016.55
2017-01-15T10:01:32.085Z,1016.63
2017-01-15T10:02:16.192Z,1016.63
2017-01-15T10:02:59.216Z,1016.6
2017-01-15T10:03:43.085Z,1016.61
2017-01-15T10:04:31.226Z,1016.64
2017-01-15T10:05:17.070Z,1016.64
2017-01-15T10:17:09.046Z,1016.74
2017-01-15T10:17:55.799Z,1016.72
2017-01-15T10:18:43.925Z,1016.8
2017-01-15T10:19:26.799Z,1016.79
2017-01-15T10:20:15.825Z,1016.79
2017-01-15T10:20:59.803Z,1016.78
2017-01-15T10:26:30.220Z,1016.84
2017-01-15T10:27:18.353Z,1016.86
2017-01-15T10:29:37.456Z,1016.89
2017-01-15T10:30:31.410Z,1016.83
2017-01-15T10:31:18.424Z,1016.89
2017-01-15T10:32:09.403Z,1016.84
2017-01-15T10:32:55.613Z,1016.89
2017-01-15T10:33:42.410Z,1016.95
2017-01-15T10:34:27.534Z,1016.95
2017-01-15T10:35:24.425Z,1016.93
2017-01-15T10:36:11.907Z,1016.93
2017-01-15T10:36:53.897Z,1016.96
2017-01-15T10:37:42.943Z,1016.92
2017-01-15T10:38:32.946Z,1016.93
2017-01-15T10:39:18.026Z,1016.89
2017-01-15T10:40:23.117Z,1016.89
2017-01-15T10:41:08.069Z,1016.91
2017-01-15T10:41:54.037Z,1016.93
2017-01-15T10:44:35.054Z,1016.91
2017-01-15T10:45:20.464Z,1016.94
2017-01-15T10:46:08.528Z,1016.96
2017-01-15T10:48:31.230Z,1016.97
2017-01-15T10:49:12.455Z,1017
2017-01-15T10:50:05.288Z,1017.04
2017-01-15T10:50:54.128Z,1017.04
2017-01-15T10:51:34.605Z,1017.02
2017-01-15T10:52:22.814Z,1017.04
2017-01-15T10:53:04.116Z,1017.02
2017-01-15T10:53:50.121Z,1017.02
2017-01-15T10:54:32.351Z,1016.99
2017-01-15T10:56:56.937Z,1017.03
2017-01-15T11:04:12.753Z,1017.07
2017-01-15T11:04:53.846Z,1017.06
2017-01-15T11:05:40.687Z,1017.08
2017-01-15T11:06:36.708Z,1017.09
2017-01-15T11:08:36.377Z,1017.12
2017-01-15T11:09:16.886Z,1017.07
2017-01-15T11:09:58.002Z,1017.08
2017-01-15T11:10:41.876Z,1017.09
2017-01-15T11:11:23.087Z,1017.1
2017-01-15T11:13:24.230Z,1017.13
2017-01-15T11:14:10.191Z,1017.16
2017-01-15T11:14:51.953Z,1017.15
2017-01-15T11:15:32.442Z,1017.15
2017-01-15T11:16:12.898Z,1017.21
2017-01-15T11:16:56.194Z,1017.17
2017-01-15T11:17:47.078Z,1017.21
2017-01-15T11:18:32.957Z,1017.24
2017-01-15T11:19:16.179Z,1017.27
2017-01-15T11:23:09.208Z,1017.29
2017-01-15T11:23:51.128Z,1017.32
2017-01-15T11:24:32.427Z,1017.27
2017-01-15T11:25:14.246Z,1017.35
2017-01-15T11:25:57.266Z,1017.3
2017-01-15T11:26:41.145Z,1017.35
2017-01-15T11:27:27.371Z,1017.34
2017-01-15T11:28:11.316Z,1017.35
2017-01-15T11:28:52.647Z,1017.34
2017-01-15T11:29:37.647Z,1017.35
2017-01-15T11:30:19.044Z,1017.34
2017-01-15T11:32:22.671Z,1017.34
2017-01-15T11:33:08.798Z,1017.35
2017-01-15T11:33:52.015Z,1017.35
2017-01-15T11:34:33.879Z,1017.32
2017-01-15T11:35:17.033Z,1017.36
2017-01-15T11:36:02.677Z,1017.33
2017-01-15T11:36:46.905Z,1017.35
2017-01-15T11:37:31.827Z,1017.33
2017-01-15T11:38:14.684Z,1017.38
2017-01-15T11:39:01.657Z,1017.33
2017-01-15T11:39:48.803Z,1017.39
2017-01-15T11:40:29.313Z,1017.41
2017-01-15T11:41:10.575Z,1017.38
2017-01-15T11:41:52.814Z,1017.39
2017-01-15T11:42:35.691Z,1017.36
2017-01-15T11:43:18.668Z,1017.36
2017-01-15T11:44:01.689Z,1017.38
2017-01-15T11:44:44.058Z,1017.36
2017-01-15T11:45:26.179Z,1017.39
2017-01-15T11:46:14.403Z,1017.37
2017-01-15T11:47:05.397Z,1017.34
2017-01-15T11:47:47.290Z,1017.42
2017-01-15T11:48:31.312Z,1017.39
2017-01-15T11:49:14.334Z,1017.4